Time;durP1;ratioP1;P1;durP2;ratioP2;P2;SDS_P1;SDS_P2;PMS_P1;PMS_P2;Temp;Humidity;BMP_temperature;BMP_pressure;BME280_temperature;BME280_humidity;BME280_pressure;Samples;Min_cycle;Max_cycle;Signal;HPM_P1;HPM_P2
2021/11/22 00:01:22;;;;;;;67.57;32.08;;;;;;;7.30;75.96;99703.16;4988898;28;20044;-70
2021/11/22 00:03:47;;;;;;;74.32;33.22;;;;;;;7.35;75.00;99710.63;4990571;28;20046;-70
2021/11/22 00:06:13;;;;;;;64.93;31.48;;;;;;;6.94;76.42;99686.28;4986630;28;20045;-69
2021/11/22 00:08:38;;;;;;;65.65;29.77;;;;;;;7.26;75.14;99700.91;4987077;28;20094;-69
2021/11/22 00:11:04;;;;;;;72.38;31.50;;;;;;;7.24;75.37;99708.94;4987253;28;20241;-70
2021/11/22 00:13:29;;;;;;;75.05;32.60;;;;;;;7.03;75.29;99711.75;4985253;28;20039;-71
2021/11/22 00:15:55;;;;;;;62.63;30.48;;;;;;;7.01;76.04;99713.69;4993474;28;20039;-70
2021/11/22 00:18:21;;;;;;;62.67;32.05;;;;;;;7.12;74.91;99706.59;4985380;28;20039;-70
2021/11/22 00:20:47;;;;;;;72.82;30.77;;;;;;;7.07;75.38;99711.47;4991230;28;20048;-70
2021/11/22 00:23:12;;;;;;;70.53;31.25;;;;;;;6.89;75.58;99714.81;4985491;28;20035;-71
2021/11/22 00:25:38;;;;;;;64.28;31.20;;;;;;;7.10;74.26;99713.81;4990142;28;20049;-69
2021/11/22 00:28:03;;;;;;;65.18;28.98;;;;;;;6.83;75.50;99723.25;4988479;28;20073;-69
2021/11/22 00:30:29;;;;;;;56.95;27.85;;;;;;;6.67;76.57;99704.56;4993982;28;20428;-70
2021/11/22 00:32:57;;;;;;;61.05;27.88;;;;;;;6.46;76.06;99670.50;4994446;28;20030;-69
2021/11/22 00:35:31;;;;;;;53.50;26.85;;;;;;;6.59;77.49;99712.31;4989680;28;20030;-70
2021/11/22 00:37:57;;;;;;;48.55;24.77;;;;;;;6.77;76.14;99715.09;4992832;28;20066;-70
2021/11/22 00:40:23;;;;;;;46.42;25.33;;;;;;;6.72;76.26;99699.72;4994932;28;20042;-70
2021/11/22 00:42:49;;;;;;;52.58;24.67;;;;;;;6.89;75.31;99706.91;4989259;28;20046;-70
2021/11/22 00:45:15;;;;;;;48.63;24.33;;;;;;;7.00;75.51;99703.31;4992820;28;20035;-72
2021/11/22 00:47:41;;;;;;;50.53;24.98;;;;;;;6.90;75.65;99702.47;4986666;28;20396;-71
2021/11/22 00:50:07;;;;;;;53.38;25.75;;;;;;;6.99;73.94;99702.47;4992292;28;20031;-69
2021/11/22 00:52:33;;;;;;;57.20;25.27;;;;;;;6.87;74.57;99711.47;4988067;28;20147;-70
2021/11/22 00:54:58;;;;;;;74.80;28.38;;;;;;;6.79;75.16;99695.56;4989765;28;20030;-70
2021/11/22 00:57:24;;;;;;;54.47;25.05;;;;;;;6.78;75.18;99704.41;4989802;28;20125;-69
2021/11/22 00:59:49;;;;;;;53.53;25.88;;;;;;;6.82;75.05;99704.97;4998893;28;20025;-69
2021/11/22 01:02:15;;;;;;;52.92;24.17;;;;;;;6.85;75.51;99705.53;4991751;28;20365;-69
2021/11/22 01:04:40;;;;;;;56.22;25.25;;;;;;;6.89;74.20;99701.66;4989778;28;20034;-69
2021/11/22 01:07:06;;;;;;;58.97;26.17;;;;;;;6.96;73.66;99709.81;4991120;28;20224;-70
2021/11/22 01:09:32;;;;;;;50.20;24.15;;;;;;;6.78;74.73;99698.34;4990663;28;20174;-70
2021/11/22 01:11:59;;;;;;;47.97;22.35;;;;;;;6.91;73.50;99701.50;4990090;28;20038;-70
2021/11/22 01:14:25;;;;;;;43.40;23.77;;;;;;;6.94;73.54;99702.06;4989669;28;20026;-69
2021/11/22 01:16:51;;;;;;;50.00;24.63;;;;;;;6.88;73.61;99700.00;4992348;28;20117;-69
2021/11/22 01:19:18;;;;;;;53.08;24.63;;;;;;;6.84;74.18;99701.25;4990090;28;20043;-70
2021/11/22 01:21:43;;;;;;;55.42;24.90;;;;;;;6.77;74.42;99696.66;4989815;28;20313;-69
2021/11/22 01:24:09;;;;;;;52.00;25.15;;;;;;;6.79;74.41;99695.56;4989536;28;20077;-70
2021/11/22 01:26:34;;;;;;;66.85;27.17;;;;;;;6.66;74.97;99695.00;4992734;28;20073;-69
2021/11/22 01:29:00;;;;;;;56.75;24.05;;;;;;;6.67;73.91;99694.88;4986387;28;20031;-70
2021/11/22 01:31:26;;;;;;;49.97;23.85;;;;;;;6.61;71.92;99692.78;4989154;28;20097;-70
2021/11/22 01:33:51;;;;;;;46.42;23.67;;;;;;;6.48;72.16;99700.13;4987345;28;20082;-72
2021/11/22 01:36:17;;;;;;;47.90;24.13;;;;;;;6.29;74.13;99702.72;4986724;28;20038;-70
2021/11/22 01:38:43;;;;;;;54.22;24.65;;;;;;;6.25;74.83;99701.34;4996557;28;20058;-70
2021/11/22 01:41:08;;;;;;;47.78;23.77;;;;;;;6.22;74.97;99670.84;4991040;28;20027;-70
2021/11/22 01:43:34;;;;;;;52.08;24.27;;;;;;;6.51;73.73;99699.00;4993076;28;20062;-69
2021/11/22 01:45:59;;;;;;;45.25;22.20;;;;;;;6.46;74.40;99698.59;4989060;28;20202;-70
2021/11/22 01:48:26;;;;;;;45.00;22.33;;;;;;;6.45;74.20;99681.97;4988762;28;20027;-70
2021/11/22 01:50:53;;;;;;;46.45;22.90;;;;;;;6.32;75.62;99700.66;4992642;28;20108;-70
2021/11/22 01:53:20;;;;;;;50.20;23.38;;;;;;;6.40;75.14;99682.41;4992959;28;20055;-69
2021/11/22 01:55:46;;;;;;;46.90;22.30;;;;;;;6.38;75.56;99686.97;4994558;28;20068;-69
2021/11/22 01:58:13;;;;;;;46.42;21.55;;;;;;;6.40;74.30;99678.94;4988739;28;20535;-70
2021/11/22 02:00:46;;;;;;;42.95;21.17;;;;;;;6.39;74.74;99682.53;4986946;28;20037;-71
2021/11/22 02:03:12;;;;;;;41.50;20.63;;;;;;;6.48;75.65;99675.63;4995699;28;20398;-70
2021/11/22 02:05:38;;;;;;;35.55;19.88;;;;;;;6.55;75.04;99674.09;4987071;28;20214;-70
2021/11/22 02:08:05;;;;;;;34.28;17.77;;;;;;;6.66;75.65;99682.69;4987587;28;20051;-70
2021/11/22 02:10:31;;;;;;;33.75;19.58;;;;;;;6.30;78.09;99676.28;4995426;28;20041;-69
2021/11/22 02:12:57;;;;;;;30.88;17.48;;;;;;;6.49;77.70;99672.00;4988161;28;20037;-70
2021/11/22 02:15:23;;;;;;;34.58;18.00;;;;;;;6.57;77.12;99675.63;4987999;28;20203;-69
2021/11/22 02:17:50;;;;;;;32.85;17.38;;;;;;;6.61;76.40;99674.38;4996316;28;20101;-72
2021/11/22 02:20:20;;;;;;;84.75;27.30;;;;;;;6.46;76.67;99670.50;4988316;28;20097;-71
2021/11/22 02:22:48;;;;;;;46.08;20.98;;;;;;;6.62;75.89;99680.47;4994462;28;20041;-69
2021/11/22 02:25:15;;;;;;;35.85;17.20;;;;;;;6.58;76.00;99676.44;4988139;28;20031;-68
2021/11/22 02:27:41;;;;;;;35.63;18.33;;;;;;;6.57;76.53;99670.34;4991312;28;20089;-69
2021/11/22 02:30:10;;;;;;;38.90;18.98;;;;;;;6.47;75.91;99685.31;4988965;28;20031;-68
2021/11/22 02:32:37;;;;;;;36.70;19.17;;;;;;;6.61;76.05;99677.00;4992863;28;20026;-71
2021/11/22 02:35:05;;;;;;;35.80;17.73;;;;;;;6.87;74.19;99674.63;4985717;28;20031;-69
2021/11/22 02:37:30;;;;;;;34.30;17.23;;;;;;;6.69;73.97;99679.78;4994048;28;20334;-69
2021/11/22 02:39:56;;;;;;;34.30;17.35;;;;;;;6.58;73.81;99679.06;4990550;28;20029;-69
2021/11/22 02:42:26;;;;;;;34.13;18.35;;;;;;;6.44;72.62;99675.06;4995444;28;20089;-69
2021/11/22 02:44:52;;;;;;;37.47;18.38;;;;;;;6.35;73.19;99675.88;4988629;28;20066;-69
2021/11/22 02:47:19;;;;;;;34.55;17.00;;;;;;;6.27;72.59;99673.09;4987165;28;20237;-71
2021/11/22 02:49:44;;;;;;;34.58;18.13;;;;;;;6.27;71.82;99679.19;4993043;28;20336;-70
2021/11/22 02:52:10;;;;;;;33.03;19.58;;;;;;;6.12;71.13;99674.44;4991799;28;20034;-69
2021/11/22 02:54:35;;;;;;;41.47;20.33;;;;;;;5.99;71.58;99682.56;4989347;28;20026;-69
2021/11/22 02:57:01;;;;;;;44.42;19.75;;;;;;;5.95;72.47;99675.91;4980940;28;20406;-71
2021/11/22 02:59:27;;;;;;;57.45;21.25;;;;;;;5.82;72.69;99680.53;4995062;28;20030;-69
2021/11/22 03:01:53;;;;;;;80.22;26.25;;;;;;;5.73;73.72;99690.88;4990518;28;20053;-69
2021/11/22 03:04:18;;;;;;;110.68;31.42;;;;;;;5.70;73.99;99685.91;4989227;28;20042;-70
2021/11/22 03:06:45;;;;;;;57.95;23.45;;;;;;;5.61;74.55;99688.47;4989640;28;20034;-70
2021/11/22 03:09:11;;;;;;;46.85;20.48;;;;;;;5.64;74.62;99693.47;4988312;28;20352;-72
2021/11/22 03:11:37;;;;;;;40.25;21.00;;;;;;;5.94;73.27;99696.09;4986870;28;20046;-70
2021/11/22 03:14:03;;;;;;;42.08;21.60;;;;;;;5.81;72.49;99695.47;4994213;28;20332;-69
2021/11/22 03:16:30;;;;;;;40.60;21.10;;;;;;;5.90;73.45;99701.75;4988974;28;20190;-70
2021/11/22 03:18:56;;;;;;;42.75;20.52;;;;;;;5.84;73.12;99697.84;4991105;28;20097;-69
2021/11/22 03:21:22;;;;;;;45.17;21.88;;;;;;;5.79;73.26;99702.66;4987796;28;20242;-69
2021/11/22 03:23:48;;;;;;;49.15;19.73;;;;;;;5.80;72.96;99711.38;4989177;28;20042;-70
2021/11/22 03:26:13;;;;;;;41.80;19.92;;;;;;;5.77;72.70;99708.03;4993273;28;20122;-70
2021/11/22 03:28:39;;;;;;;40.28;17.83;;;;;;;5.70;73.77;99700.81;4990319;28;20324;-69
2021/11/22 03:31:05;;;;;;;36.47;17.48;;;;;;;5.72;72.50;99706.78;4992746;28;20038;-69
2021/11/22 03:33:30;;;;;;;38.85;18.60;;;;;;;5.68;71.23;99714.09;4987515;28;20110;-71
2021/11/22 03:35:58;;;;;;;34.80;18.27;;;;;;;5.67;72.45;99707.19;4996194;28;20064;-70
2021/11/22 03:38:25;;;;;;;41.35;19.10;;;;;;;5.47;71.61;99696.72;4987875;28;20042;-69
2021/11/22 03:40:54;;;;;;;42.58;20.90;;;;;;;5.30;71.42;99716.53;4989401;28;20034;-70
2021/11/22 03:43:46;;;;;;;42.58;20.30;;;;;;;5.29;72.93;99718.31;4985995;28;20088;-69
2021/11/22 03:46:13;;;;;;;41.10;20.80;;;;;;;5.12;72.17;99714.44;4993444;28;20030;-69
2021/11/22 03:48:39;;;;;;;41.25;20.48;;;;;;;5.27;71.55;99706.28;4988190;28;20089;-69
2021/11/22 03:51:05;;;;;;;70.75;29.48;;;;;;;5.37;71.94;99707.16;4989221;28;20038;-69
2021/11/22 03:53:31;;;;;;;48.78;22.60;;;;;;;5.37;71.82;99710.63;4989991;28;20049;-70
2021/11/22 03:55:57;;;;;;;39.40;20.02;;;;;;;5.51;71.45;99711.25;4990368;28;20081;-70
2021/11/22 03:58:22;;;;;;;42.25;20.60;;;;;;;5.43;72.52;99709.28;4992620;28;20033;-70
2021/11/22 04:00:48;;;;;;;41.08;19.88;;;;;;;5.35;71.66;99704.66;4987785;28;20122;-69
2021/11/22 04:03:13;;;;;;;53.25;25.65;;;;;;;5.33;71.40;99698.72;4991316;28;20093;-70
2021/11/22 04:05:38;;;;;;;52.85;26.00;;;;;;;5.34;71.90;99703.00;4987081;28;20034;-69
2021/11/22 04:08:04;;;;;;;50.80;22.67;;;;;;;5.44;71.32;99706.50;4985168;28;20330;-68
2021/11/22 04:10:30;;;;;;;49.20;23.27;;;;;;;5.45;70.38;99715.22;4988675;28;20030;-71
2021/11/22 04:12:55;;;;;;;48.50;23.63;;;;;;;5.43;70.33;99717.97;4993765;28;20343;-71
2021/11/22 04:15:22;;;;;;;51.33;23.60;;;;;;;5.19;70.52;99716.56;4985995;28;20050;-69
2021/11/22 04:17:47;;;;;;;41.10;23.17;;;;;;;5.10;72.17;99713.75;4986635;28;20042;-69
2021/11/22 04:20:13;;;;;;;51.58;23.92;;;;;;;5.02;71.44;99710.09;4990634;28;20042;-69
2021/11/22 04:22:39;;;;;;;52.50;22.77;;;;;;;5.03;70.12;99723.09;4987800;28;20027;-70
2021/11/22 04:25:06;;;;;;;61.90;26.40;;;;;;;5.08;71.73;99717.47;4987536;28;20047;-70
2021/11/22 04:27:32;;;;;;;82.18;32.13;;;;;;;5.11;71.77;99714.56;4986954;28;20046;-69
2021/11/22 04:29:58;;;;;;;120.25;36.80;;;;;;;5.10;71.59;99726.88;4987599;28;20043;-70
2021/11/22 04:32:24;;;;;;;88.72;30.10;;;;;;;5.15;71.68;99723.84;4993869;28;20026;-69
2021/11/22 04:34:49;;;;;;;65.18;25.05;;;;;;;5.15;69.87;99718.59;4989009;28;20049;-69
2021/11/22 04:37:15;;;;;;;68.43;26.27;;;;;;;5.12;70.99;99713.63;4989288;28;20046;-70
2021/11/22 04:39:40;;;;;;;236.55;65.88;;;;;;;5.08;71.15;99717.47;4988081;28;20100;-68
2021/11/22 04:42:06;;;;;;;158.77;48.22;;;;;;;5.02;71.99;99717.97;4985037;28;20037;-69
2021/11/22 04:44:31;;;;;;;71.97;29.50;;;;;;;5.03;73.30;99712.59;4990929;28;20056;-70
2021/11/22 04:46:57;;;;;;;85.82;30.50;;;;;;;5.01;71.42;99716.28;4994515;28;20030;-69
2021/11/22 04:49:22;;;;;;;56.25;25.65;;;;;;;5.01;72.99;99719.75;4986591;28;20074;-69
2021/11/22 04:51:48;;;;;;;64.10;26.35;;;;;;;5.04;72.87;99721.28;4985958;28;20053;-69
2021/11/22 04:54:13;;;;;;;66.20;27.77;;;;;;;5.06;72.30;99722.00;4983084;28;20260;-69
2021/11/22 04:56:39;;;;;;;53.03;22.92;;;;;;;4.97;71.83;99728.00;4986727;28;20064;-67
2021/11/22 04:59:04;;;;;;;67.10;25.48;;;;;;;4.95;71.32;99730.75;4986460;28;20101;-70
2021/11/22 05:01:30;;;;;;;66.05;29.27;;;;;;;4.80;72.55;99738.09;4991593;28;20105;-69
2021/11/22 05:03:55;;;;;;;52.33;22.95;;;;;;;4.75;70.25;99739.44;4990604;28;20061;-70
2021/11/22 05:06:21;;;;;;;56.05;18.80;;;;;;;4.40;68.98;99742.28;4993625;28;20209;-68
2021/11/22 05:08:46;;;;;;;42.05;16.85;;;;;;;3.91;68.70;99740.06;4986726;28;20050;-66
2021/11/22 05:11:12;;;;;;;47.25;18.98;;;;;;;3.72;70.71;99751.13;4989756;28;20035;-67
2021/11/22 05:13:37;;;;;;;50.00;20.17;;;;;;;3.71;72.54;99758.16;4987348;28;20043;-68
2021/11/22 05:16:03;;;;;;;45.57;19.60;;;;;;;3.85;72.84;99749.22;4988364;28;20110;-68
2021/11/22 05:18:28;;;;;;;82.07;27.87;;;;;;;3.92;72.91;99755.66;4992873;28;20049;-66
2021/11/22 05:20:54;;;;;;;117.20;34.30;;;;;;;4.02;74.09;99751.38;4990044;28;20097;-67
2021/11/22 05:23:19;;;;;;;58.67;22.57;;;;;;;4.28;72.40;99754.59;4992806;28;20074;-67
2021/11/22 05:25:45;;;;;;;46.75;21.80;;;;;;;4.10;72.15;99750.75;4985913;28;20033;-69
2021/11/22 05:28:11;;;;;;;57.95;22.35;;;;;;;4.16;71.61;99745.03;4988031;28;20095;-67
2021/11/22 05:30:37;;;;;;;59.53;25.33;;;;;;;4.20;72.38;99764.00;4989006;28;20489;-69
2021/11/22 05:33:05;;;;;;;63.00;24.42;;;;;;;4.25;72.53;99765.31;4997026;28;20030;-71
2021/11/22 05:35:31;;;;;;;51.65;22.75;;;;;;;4.37;71.40;99768.75;4979762;28;20031;-71
2021/11/22 05:37:57;;;;;;;69.57;27.10;;;;;;;4.37;72.03;99774.00;4986553;28;20078;-67
2021/11/22 05:40:23;;;;;;;148.53;56.47;;;;;;;4.26;72.56;99781.88;4991526;28;20376;-68
2021/11/22 05:42:49;;;;;;;157.97;66.70;;;;;;;3.91;74.97;99777.56;4984651;28;20031;-71
2021/11/22 05:45:15;;;;;;;141.85;54.85;;;;;;;3.95;75.22;99789.47;4992951;28;20038;-70
2021/11/22 05:47:40;;;;;;;89.15;38.67;;;;;;;3.96;75.61;99793.75;4989273;28;20072;-69
2021/11/22 05:50:07;;;;;;;117.55;45.88;;;;;;;4.20;75.83;99784.97;4987922;28;20105;-71
2021/11/22 05:52:36;;;;;;;117.03;44.13;;;;;;;4.59;74.30;99792.28;4985839;28;20355;-70
2021/11/22 05:55:15;;;;;;;97.07;38.95;;;;;;;4.75;72.48;99794.53;4989257;28;20039;-70
2021/11/22 05:57:41;;;;;;;92.03;35.50;;;;;;;4.65;73.18;99783.94;4988803;28;20045;-69
2021/11/22 06:00:08;;;;;;;88.95;36.38;;;;;;;4.78;73.14;99789.84;5000051;28;20042;-69
2021/11/22 06:02:33;;;;;;;75.82;33.83;;;;;;;4.76;72.72;99786.53;5006341;28;20101;-70
2021/11/22 06:04:59;;;;;;;87.15;36.30;;;;;;;4.80;72.79;99794.97;4996516;28;20065;-67
2021/11/22 06:07:24;;;;;;;97.63;38.42;;;;;;;4.76;72.91;99798.81;4996040;28;20109;-68
2021/11/22 06:09:52;;;;;;;88.03;37.40;;;;;;;4.75;73.48;99786.66;4987423;28;20111;-67
2021/11/22 06:12:17;;;;;;;89.10;38.42;;;;;;;4.92;73.18;99796.59;4993760;28;20101;-67
2021/11/22 06:14:42;;;;;;;96.30;36.92;;;;;;;4.88;73.12;99804.84;4987811;28;20359;-68
2021/11/22 06:17:08;;;;;;;93.88;41.17;;;;;;;4.60;75.47;99804.44;4988206;28;20089;-69
2021/11/22 06:19:33;;;;;;;97.85;40.80;;;;;;;4.75;75.38;99800.59;4993872;28;20032;-70
2021/11/22 06:21:59;;;;;;;84.07;35.80;;;;;;;4.92;75.10;99809.72;4992062;28;20057;-69
2021/11/22 06:24:24;;;;;;;86.68;34.67;;;;;;;5.07;74.50;99810.28;4987641;28;20098;-71
2021/11/22 06:26:53;;;;;;;87.15;32.40;;;;;;;5.28;73.85;99819.03;4988176;28;20031;-72
2021/11/22 06:29:19;;;;;;;73.07;28.85;;;;;;;5.11;74.58;99802.03;4986615;28;20026;-70
2021/11/22 06:31:44;;;;;;;64.40;28.20;;;;;;;5.36;74.60;99829.75;4999195;28;20034;-70
2021/11/22 06:34:10;;;;;;;48.20;26.50;;;;;;;5.16;75.06;99822.63;4989142;28;20027;-69
2021/11/22 06:36:35;;;;;;;51.22;26.80;;;;;;;5.07;76.01;99818.16;4988820;28;20042;-69
2021/11/22 06:39:01;;;;;;;53.88;28.13;;;;;;;5.14;76.40;99835.06;4991743;28;20042;-69
2021/11/22 06:41:26;;;;;;;51.53;27.88;;;;;;;5.41;75.58;99832.81;5004655;28;20049;-71
2021/11/22 06:43:52;;;;;;;57.20;29.38;;;;;;;5.43;75.49;99827.44;4989105;28;20508;-69
2021/11/22 06:46:17;;;;;;;73.68;30.02;;;;;;;5.67;74.94;99825.41;4985130;28;20066;-69
2021/11/22 06:48:43;;;;;;;81.07;30.60;;;;;;;5.85;74.60;99823.00;4992192;28;20050;-69
2021/11/22 06:51:08;;;;;;;92.47;32.42;;;;;;;5.98;73.98;99830.72;4988467;28;20038;-70
2021/11/22 06:53:34;;;;;;;73.50;29.98;;;;;;;6.28;73.64;99830.75;4987775;28;20026;-70
2021/11/22 06:55:59;;;;;;;137.90;50.83;;;;;;;6.71;72.08;99827.81;4986033;28;20035;-69
2021/11/22 06:58:25;;;;;;;86.75;36.90;;;;;;;6.91;72.40;99828.69;4988446;28;20030;-72
2021/11/22 07:00:52;;;;;;;78.40;34.70;;;;;;;6.84;73.19;99821.47;4995011;28;20340;-70
2021/11/22 07:03:17;;;;;;;70.88;33.30;;;;;;;7.34;71.22;99835.38;4988021;28;20081;-67
2021/11/22 07:05:42;;;;;;;64.20;31.92;;;;;;;7.64;70.54;99842.31;4989933;28;20101;-68
2021/11/22 07:08:08;;;;;;;73.47;33.05;;;;;;;7.68;69.62;99841.03;4995854;28;20439;-67
2021/11/22 07:10:34;;;;;;;80.80;32.58;;;;;;;7.88;70.04;99852.38;4987483;28;20038;-68
2021/11/22 07:13:00;;;;;;;74.78;33.83;;;;;;;8.05;69.16;99850.81;4990160;28;20027;-67
2021/11/22 07:15:33;;;;;;;57.08;26.73;;;;;;;8.20;69.01;99859.94;4988540;28;20038;-67
2021/11/22 07:17:58;;;;;;;57.28;28.73;;;;;;;8.43;68.92;99852.53;4989967;28;20443;-68
2021/11/22 07:20:24;;;;;;;49.63;25.05;;;;;;;8.46;68.71;99860.16;4989102;28;20035;-67
2021/11/22 07:22:49;;;;;;;49.70;27.20;;;;;;;8.79;67.50;99842.91;4985152;28;20046;-68
2021/11/22 07:25:15;;;;;;;62.03;27.80;;;;;;;9.03;67.47;99842.34;4987946;28;20204;-67
2021/11/22 07:27:40;;;;;;;72.35;30.35;;;;;;;9.18;66.25;99840.84;4985133;28;20034;-70
2021/11/22 07:30:07;;;;;;;57.22;27.77;;;;;;;9.33;65.94;99841.97;4986860;28;20042;-69
2021/11/22 07:32:32;;;;;;;50.72;27.60;;;;;;;9.42;66.19;99842.91;4990629;28;20046;-68
2021/11/22 07:34:58;;;;;;;59.00;29.45;;;;;;;9.46;66.34;99844.25;4987176;28;20038;-67
2021/11/22 07:37:24;;;;;;;54.28;27.73;;;;;;;9.60;65.40;99843.72;4990487;28;20320;-68
2021/11/22 07:39:50;;;;;;;57.75;28.83;;;;;;;9.54;66.12;99844.31;4985494;28;20277;-67
2021/11/22 07:42:16;;;;;;;55.15;28.33;;;;;;;9.70;65.43;99848.91;4984856;28;20105;-69
2021/11/22 07:44:43;;;;;;;52.35;27.35;;;;;;;9.77;65.33;99849.94;4988834;28;20014;-67
2021/11/22 07:47:10;;;;;;;52.53;25.98;;;;;;;9.84;65.46;99851.00;4984311;28;20030;-67
2021/11/22 07:49:36;;;;;;;43.95;25.33;;;;;;;10.03;64.63;99842.03;4986279;28;20034;-68
2021/11/22 07:52:01;;;;;;;48.08;25.20;;;;;;;10.01;64.65;99839.53;4987679;28;20096;-67
2021/11/22 07:54:27;;;;;;;55.03;26.10;;;;;;;10.14;64.70;99845.22;4990826;28;20041;-68
2021/11/22 07:56:52;;;;;;;53.03;25.38;;;;;;;10.02;65.27;99827.97;4987606;28;20058;-68
2021/11/22 07:59:20;;;;;;;53.42;26.75;;;;;;;10.35;64.73;99836.09;4989303;28;20320;-67
2021/11/22 08:01:46;;;;;;;55.75;27.95;;;;;;;10.49;64.90;99832.88;4989031;28;20035;-69
2021/11/22 08:04:15;;;;;;;60.15;31.33;;;;;;;10.48;65.03;99829.41;4986768;28;20038;-68
2021/11/22 08:06:45;;;;;;;51.80;28.30;;;;;;;10.53;65.37;99831.59;4989443;28;20041;-67
2021/11/22 08:09:23;;;;;;;56.00;27.85;;;;;;;10.63;65.62;99834.09;4993116;28;20193;-66
2021/11/22 08:12:13;;;;;;;61.00;28.77;;;;;;;10.55;66.25;99827.78;4988845;28;20101;-67
2021/11/22 08:14:39;;;;;;;54.63;27.60;;;;;;;10.59;65.84;99808.94;4993827;28;20340;-67
2021/11/22 08:17:05;;;;;;;53.08;26.67;;;;;;;10.85;65.23;99826.41;4987474;28;20332;-67
2021/11/22 08:19:30;;;;;;;58.38;29.35;;;;;;;10.87;65.87;99824.41;4987898;28;20107;-68
2021/11/22 08:21:57;;;;;;;56.40;26.92;;;;;;;10.77;66.40;99829.03;4989567;28;20384;-69
2021/11/22 08:24:26;;;;;;;55.58;28.95;;;;;;;10.83;66.75;99833.66;4987929;28;20305;-68
2021/11/22 08:26:52;;;;;;;53.40;28.80;;;;;;;11.15;65.59;99837.38;4985925;28;20183;-68
2021/11/22 08:29:17;;;;;;;59.35;31.20;;;;;;;11.47;65.00;99826.84;4986953;28;20081;-69
2021/11/22 08:31:43;;;;;;;53.00;30.35;;;;;;;11.54;64.73;99828.81;4987793;28;20106;-70
2021/11/22 08:34:08;;;;;;;56.45;27.58;;;;;;;11.56;64.78;99834.78;4989521;28;20232;-70
2021/11/22 08:36:33;;;;;;;52.65;27.55;;;;;;;11.66;64.93;99828.31;5006944;28;20050;-67
2021/11/22 08:38:59;;;;;;;42.88;23.15;;;;;;;11.74;64.38;99825.66;4990021;28;20109;-70
2021/11/22 08:41:25;;;;;;;43.45;23.13;;;;;;;11.74;64.62;99811.56;4990850;28;20038;-70
2021/11/22 08:43:51;;;;;;;41.53;24.48;;;;;;;11.78;64.05;99826.19;4992885;28;20039;-68
2021/11/22 08:46:16;;;;;;;43.40;24.10;;;;;;;12.06;62.98;99821.31;4991164;28;20218;-70
2021/11/22 08:48:41;;;;;;;46.20;24.75;;;;;;;12.27;61.98;99823.41;4995675;28;20031;-70
2021/11/22 08:51:08;;;;;;;52.75;27.13;;;;;;;12.53;61.84;99825.84;4993422;28;20222;-70
2021/11/22 08:53:34;;;;;;;43.28;24.95;;;;;;;12.50;61.64;99816.38;4995016;28;20049;-69
2021/11/22 08:56:00;;;;;;;45.33;23.02;;;;;;;12.60;60.87;99817.00;4994143;28;20041;-70
2021/11/22 08:58:26;;;;;;;36.70;20.05;;;;;;;12.36;61.09;99815.25;4994980;28;20038;-69
2021/11/22 09:00:51;;;;;;;32.20;18.58;;;;;;;12.06;61.94;99823.97;4993038;28;20106;-68
2021/11/22 09:03:17;;;;;;;38.72;19.95;;;;;;;12.20;62.36;99820.63;4996093;28;20045;-69
2021/11/22 09:05:43;;;;;;;38.42;18.45;;;;;;;12.23;62.05;99798.22;4993133;28;20054;-67
2021/11/22 09:08:08;;;;;;;30.17;17.25;;;;;;;12.31;61.60;99814.94;4995880;28;20097;-67
2021/11/22 09:10:34;;;;;;;30.67;18.00;;;;;;;12.36;61.39;99809.13;4994515;28;20050;-68
2021/11/22 09:13:00;;;;;;;35.65;19.50;;;;;;;12.42;62.09;99798.63;4994801;28;20303;-68
2021/11/22 09:15:26;;;;;;;36.75;20.63;;;;;;;12.41;62.86;99791.66;4994163;28;20306;-69
2021/11/22 09:17:52;;;;;;;32.90;19.40;;;;;;;12.35;62.70;99800.31;4994416;28;20069;-67
2021/11/22 09:20:17;;;;;;;35.28;20.33;;;;;;;12.24;62.95;99795.38;4993578;28;20030;-68
2021/11/22 09:22:43;;;;;;;37.95;19.88;;;;;;;12.50;62.74;99786.34;4994649;28;20098;-68
2021/11/22 09:25:12;;;;;;;41.85;20.70;;;;;;;12.35;63.61;99787.03;4995349;28;20034;-67
2021/11/22 09:27:38;;;;;;;44.17;20.95;;;;;;;12.49;62.76;99782.88;4996233;28;20042;-68
2021/11/22 09:30:06;;;;;;;52.28;21.00;;;;;;;12.62;62.01;99788.44;4994676;28;20030;-68
2021/11/22 09:32:31;;;;;;;33.13;19.30;;;;;;;12.71;61.20;99781.25;4994678;28;20245;-68
2021/11/22 09:34:57;;;;;;;32.47;18.77;;;;;;;12.63;60.83;99768.03;4994497;28;20044;-68
2021/11/22 09:37:22;;;;;;;40.47;20.23;;;;;;;12.69;60.64;99780.59;4993702;28;20026;-69
2021/11/22 09:39:48;;;;;;;38.83;21.25;;;;;;;12.86;60.38;99766.22;4994864;28;20109;-71
2021/11/22 09:42:14;;;;;;;35.13;19.33;;;;;;;12.70;60.88;99766.31;4994360;28;20042;-67
2021/11/22 09:44:39;;;;;;;27.40;16.38;;;;;;;12.67;60.24;99766.66;4994487;28;20312;-69
2021/11/22 09:47:05;;;;;;;31.45;16.42;;;;;;;12.23;60.59;99751.25;4994233;28;20031;-69
2021/11/22 10:51:27;;;;;;;46.58;24.30;;;;;;;13.00;61.28;99693.69;5078034;28;21065;-76
2021/11/22 10:54:03;;;;;;;62.88;31.00;;;;;;;13.17;60.74;99705.03;5078315;28;20099;-76
2021/11/22 10:56:37;;;;;;;67.53;31.67;;;;;;;13.32;61.88;99705.06;5078076;28;20404;-76
2021/11/22 10:59:08;;;;;;;62.08;30.80;;;;;;;13.22;61.42;99696.53;5078145;28;20033;-75
2021/11/22 11:01:54;;;;;;;61.50;30.55;;;;;;;13.21;61.22;99695.69;5078072;28;20048;-73
2021/11/22 11:04:22;;;;;;;67.65;30.48;;;;;;;13.52;60.81;99686.75;5078078;28;20033;-75
2021/11/22 11:07:07;;;;;;;83.63;36.30;;;;;;;13.52;60.64;99682.25;5078012;28;20036;-76
2021/11/22 11:09:59;;;;;;;75.18;35.53;;;;;;;13.51;60.59;99674.47;5077399;28;20039;-76
2021/11/22 11:12:25;;;;;;;68.15;30.95;;;;;;;13.28;62.69;99678.00;5074913;28;20078;-75
2021/11/22 11:14:57;;;;;;;59.72;29.17;;;;;;;13.11;64.22;99672.00;5077775;28;20032;-76
2021/11/22 11:17:32;;;;;;;63.40;28.60;;;;;;;12.97;62.82;99666.63;5077805;28;20095;-76
2021/11/22 11:20:04;;;;;;;45.90;23.95;;;;;;;13.07;63.62;99683.16;5077585;28;20104;-75
2021/11/22 11:22:30;;;;;;;36.95;21.17;;;;;;;13.27;62.82;99676.38;5077676;28;20031;-76
2021/11/22 11:24:57;;;;;;;36.72;21.23;;;;;;;13.47;60.69;99667.84;5077786;28;20029;-76
2021/11/22 11:27:23;;;;;;;38.35;21.05;;;;;;;13.39;61.21;99658.13;5077815;28;20274;-76
2021/11/22 11:29:48;;;;;;;40.25;21.55;;;;;;;13.53;60.17;99661.84;5069318;28;20070;-75
2021/11/22 11:32:14;;;;;;;36.55;21.02;;;;;;;13.46;60.97;99668.88;5070737;28;20033;-74
2021/11/22 11:34:45;;;;;;;50.13;24.83;;;;;;;13.16;62.04;99667.97;5069847;28;20053;-76
2021/11/22 11:37:18;;;;;;;41.17;23.75;;;;;;;13.55;60.36;99665.13;5069625;28;20040;-76
2021/11/22 11:40:34;;;;;;;47.97;24.80;;;;;;;13.46;61.01;99656.38;5069499;28;20098;-76
2021/11/22 11:43:23;;;;;;;75.35;38.88;;;;;;;13.45;61.18;99654.75;5061737;28;20098;-78
2021/11/22 11:46:16;;;;;;;92.85;47.63;;;;;;;13.57;60.98;99648.00;5038918;28;20036;-75
2021/11/22 11:49:02;;;;;;;82.43;40.58;;;;;;;13.28;61.79;99639.97;5069487;28;20096;-76
2021/11/22 11:51:33;;;;;;;83.05;41.88;;;;;;;13.40;61.49;99646.47;5057789;28;20020;-76
2021/11/22 11:54:04;;;;;;;76.07;36.72;;;;;;;13.47;61.43;99649.25;5057644;28;20048;-75
2021/11/22 11:56:44;;;;;;;62.75;32.28;;;;;;;13.19;61.55;99655.16;5057055;28;20017;-76
2021/11/22 11:59:25;;;;;;;77.97;39.63;;;;;;;13.55;60.52;99651.84;5056124;28;20423;-76
2021/11/22 12:02:01;;;;;;;78.45;41.70;;;;;;;13.69;60.12;99646.50;5056829;28;20056;-76
2021/11/22 12:04:29;;;;;;;88.15;40.65;;;;;;;13.67;61.00;99650.38;5057725;28;20055;-76
2021/11/22 12:07:00;;;;;;;77.97;38.17;;;;;;;13.70;61.14;99640.19;5055597;28;20095;-74
2021/11/22 12:09:43;;;;;;;68.88;34.80;;;;;;;13.68;60.29;99652.03;5056112;28;20041;-74
2021/11/22 12:12:08;;;;;;;66.88;34.70;;;;;;;13.79;60.48;99642.75;5057170;28;20302;-76
2021/11/22 12:15:05;;;;;;;70.05;32.42;;;;;;;13.70;60.96;99607.44;5054748;28;20366;-75
2021/11/22 12:17:33;;;;;;;68.15;34.72;;;;;;;13.71;59.79;99633.84;5056322;28;20033;-77
2021/11/22 12:20:28;;;;;;;73.45;35.70;;;;;;;13.80;59.97;99644.41;5054582;28;20407;-76
2021/11/22 12:23:09;;;;;;;70.05;35.85;;;;;;;13.92;59.45;99641.06;5056417;28;20045;-75
2021/11/22 12:25:37;;;;;;;77.03;34.55;;;;;;;13.95;58.94;99646.03;5057042;28;20104;-76